Pagrindinis puslapis
METAR-TAF:

METAR-TAF

Oro uostai :

Rafha, Saudo Arabija

platuma: 29-37N, ilguma: 043-29E, Aukštis: 449 m

Dabartinis oras

Ataskaita buvo paskelbta 38 minutes, ne 19:00 UTC
Vėjas 3 kt iš Šiaurės Vakarų
Temperatūra 33°C
Drėgmė 8%
Slėgis 1009 hPa
Matomumas 10 km arba daugiau
nėra debesų žemiau 1500 m ir nėra kamuolinių lietaus debesų

METAR: OERF 121900Z 32003KT CAVOK 33/M06 Q1009 NOSIG

Laikas: 22:38 (19:38 UTC)

Prognozė

Ataskaita buvo paskelbta 8 valandos ir 38 minutes, ne 11:00 UTC
Prognozė galioja nuo 12 metu 12 UTC su 13 metu 18 UTC
Vėjas 14 kt iš Šiaurės/Šiaurės Vakarų
Matomumas 10 km arba daugiau
nėra debesų žemiau 1500 m ir nėra kamuolinių lietaus debesų
Tapsmas
nuo 12 metu 20 UTC su 13 metu 00 UTC
Vėjas 3 kt nuo kintamojo kryptimis
Tapsmas
nuo 13 metu 06 UTC su 13 metu 08 UTC
Vėjas 14 kt iš Vakarų/Šiaurės Vakarų

TAF: OERF 121100Z 1212/1318 33014KT CAVOK BECMG 1220/1300 VRB03KT BECMG 1306/1308 30014KT

Orai ataskaitas ir orų prognozės (METAR, TAF).

turimą stotys yra geltonos ir raudonos taškus žemėlapyje.

Perkelti pele per norėdami pamatyti stoties vardą.

Tada spustelėkite, norėdami matyti oro stebėjimo ir prognozės.

Norėdami pakeisti žemėlapį: spustelėkite ant žalios mygtukų su juodo kryžiaus žemyn,; žalią mygtuką su brūkšneliu, jei norite nutolinti; arba žalių rodyklių gretimoms žemėlapius.


METAR-TAF: